NCAR-RAP Real-Time Weather Data

Output produced by METARs form (12 May 2021  12:25 UTC)
found at http://weather.rap.ucar.edu/surface/
 
KMAE 121153Z AUTO 00000KT 10SM CLR 12/08 A2991 RMK AO2 SLP125 T01170083 10189 20117 53009
KMAE 121053Z AUTO 28003KT 10SM CLR 13/09 A2989 RMK AO2 SLP120 T01330094
KMAE 120953Z AUTO 29003KT 10SM CLR 14/09 A2989 RMK AO2 SLP118 T01390094
KMAE 120853Z AUTO 31005KT 10SM CLR 17/08 A2988 RMK AO2 SLP116 T01720083 51004
KMAE 120753Z AUTO 29007KT 10SM CLR 15/09 A2988 RMK AO2 SLP116 T01500089 403440122
KMAE 120653Z AUTO 30003KT 10SM CLR 17/11 A2987 RMK AO2 SLP114 T01670106
KMAE 120553Z AUTO 32005KT 10SM CLR 19/09 A2987 RMK AO2 SLP112 T01890089 10344 20189 52015
KMAE 120453Z AUTO 30004KT 10SM CLR 21/08 A2986 RMK AO2 SLP108 T02110083
KMAE 120353Z AUTO 30006KT 10SM CLR 23/07 A2984 RMK AO2 SLP101 T02280067
KMAE 120253Z AUTO 31006KT 10SM CLR 27/04 A2983 RMK AO2 SLP097 T02670044 55001
KMAE 120153Z AUTO 32008KT 10SM CLR 32/02 A2982 RMK AO2 SLP095 T03220017
KMAE 120053Z AUTO 34012KT 10SM CLR 34/M01 A2982 RMK AO2 SLP097 T03391011
KMAE 112353Z AUTO 34009KT 10SM CLR 34/02 A2983 RMK AO2 SLP098 T03440022 10344 20278 56016